WIF557 ENZV-ENBR
Flight info
| Callsign | WIF557 |
|---|---|
| Flight time | 0h 33m |
| Altitude | 16000 |
| Route | ALUVA |
| Aircraft | DH8D/M-SDE2E3FGRY/H |
Departure
| Time | 2026-05-06 17:50 |
|---|---|
| Airport | Stavanger Airport, Sola (ENZV) |
Arrival
| Time | 2026-05-06 18:24 |
|---|---|
| Airport | Bergen Airport, Flesland (ENBR) |
| Time | Latitude | Longitude | Altitude | Speed | Heading |
|---|---|---|---|---|---|
| 2026-05-06 17:23 | 58.88356 | 5.63015 | 28 ft | 0 kts | 225° |
| 2026-05-06 17:39 | 58.88355 | 5.63015 | 27 ft | 0 kts | 225° |
| 2026-05-06 17:40 | 58.88356 | 5.63016 | 27 ft | 1 kts | 225° |
| 2026-05-06 17:41 | 58.88366 | 5.63036 | 28 ft | 2 kts | 225° |
| 2026-05-06 17:41 | 58.88377 | 5.63056 | 28 ft | 2 kts | 225° |
| 2026-05-06 17:41 | 58.88380 | 5.63061 | 28 ft | 0 kts | 225° |
| 2026-05-06 17:46 | 58.88376 | 5.63059 | 28 ft | 1 kts | 187° |
| 2026-05-06 17:46 | 58.88370 | 5.63083 | 28 ft | 3 kts | 95° |
| 2026-05-06 17:46 | 58.88367 | 5.63148 | 28 ft | 6 kts | 94° |
| 2026-05-06 17:46 | 58.88339 | 5.63244 | 29 ft | 11 kts | 162° |
| 2026-05-06 17:47 | 58.88277 | 5.63340 | 29 ft | 12 kts | 91° |
| 2026-05-06 17:47 | 58.88226 | 5.63434 | 30 ft | 12 kts | 182° |
| 2026-05-06 17:47 | 58.88124 | 5.63436 | 30 ft | 16 kts | 179° |
| 2026-05-06 17:47 | 58.88017 | 5.63430 | 30 ft | 15 kts | 197° |
| 2026-05-06 17:48 | 58.87911 | 5.63341 | 30 ft | 16 kts | 205° |
| 2026-05-06 17:48 | 58.87808 | 5.63288 | 30 ft | 14 kts | 180° |
| 2026-05-06 17:48 | 58.87739 | 5.63384 | 30 ft | 13 kts | 108° |
| 2026-05-06 17:48 | 58.87716 | 5.63546 | 32 ft | 11 kts | 104° |
| 2026-05-06 17:49 | 58.87688 | 5.63725 | 33 ft | 14 kts | 106° |
| 2026-05-06 17:49 | 58.87706 | 5.63779 | 33 ft | 0 kts | 359° |
| 2026-05-06 17:49 | 58.87716 | 5.63779 | 33 ft | 11 kts | 360° |
| 2026-05-06 17:49 | 58.88120 | 5.63768 | 32 ft | 101 kts | 359° |
| 2026-05-06 17:50 | 58.89011 | 5.63754 | 81 ft | 146 kts | 357° |
| 2026-05-06 17:50 | 58.90083 | 5.63777 | 485 ft | 161 kts | 0° |
| 2026-05-06 17:50 | 58.91196 | 5.63917 | 1098 ft | 167 kts | 2° |
| 2026-05-06 17:50 | 58.92378 | 5.64086 | 1703 ft | 175 kts | 1° |
| 2026-05-06 17:51 | 58.93589 | 5.64157 | 2369 ft | 175 kts | 1° |
| 2026-05-06 17:51 | 58.94807 | 5.64208 | 2926 ft | 177 kts | 0° |
| 2026-05-06 17:51 | 58.96021 | 5.64245 | 3509 ft | 178 kts | 0° |
| 2026-05-06 17:51 | 58.97229 | 5.63831 | 4039 ft | 181 kts | 333° |
| 2026-05-06 17:52 | 58.98220 | 5.62345 | 4604 ft | 183 kts | 322° |
| 2026-05-06 17:52 | 58.99195 | 5.60761 | 5167 ft | 185 kts | 322° |
| 2026-05-06 17:52 | 59.00182 | 5.59159 | 5743 ft | 187 kts | 322° |
| 2026-05-06 17:52 | 59.01178 | 5.57553 | 6311 ft | 188 kts | 325° |
| 2026-05-06 17:53 | 59.02228 | 5.56055 | 6885 ft | 190 kts | 324° |
| 2026-05-06 17:53 | 59.03242 | 5.54447 | 7496 ft | 190 kts | 322° |
| 2026-05-06 17:53 | 59.04252 | 5.52827 | 8090 ft | 191 kts | 321° |
| 2026-05-06 17:53 | 59.05269 | 5.51201 | 8711 ft | 191 kts | 321° |
| 2026-05-06 17:54 | 59.06286 | 5.49579 | 9344 ft | 191 kts | 320° |
| 2026-05-06 17:54 | 59.07299 | 5.47966 | 9950 ft | 191 kts | 320° |
| 2026-05-06 17:54 | 59.08336 | 5.46319 | 10541 ft | 194 kts | 319° |
| 2026-05-06 17:54 | 59.09369 | 5.44678 | 11138 ft | 194 kts | 319° |
| 2026-05-06 17:55 | 59.10417 | 5.43012 | 11717 ft | 196 kts | 318° |
| 2026-05-06 17:55 | 59.11470 | 5.41339 | 12307 ft | 197 kts | 317° |
| 2026-05-06 17:55 | 59.12522 | 5.39668 | 12871 ft | 198 kts | 317° |
| 2026-05-06 17:55 | 59.13581 | 5.37984 | 13446 ft | 199 kts | 316° |
| 2026-05-06 17:56 | 59.14640 | 5.36299 | 13982 ft | 199 kts | 316° |
| 2026-05-06 17:56 | 59.15720 | 5.34579 | 14515 ft | 200 kts | 314° |
| 2026-05-06 17:56 | 59.16780 | 5.32890 | 15042 ft | 200 kts | 314° |
| 2026-05-06 17:56 | 59.17868 | 5.31153 | 15520 ft | 203 kts | 314° |
| 2026-05-06 17:57 | 59.18951 | 5.29423 | 15980 ft | 204 kts | 314° |
| 2026-05-06 17:57 | 59.20038 | 5.27688 | 16453 ft | 204 kts | 313° |
| 2026-05-06 17:57 | 59.21138 | 5.25929 | 16897 ft | 206 kts | 313° |
| 2026-05-06 17:57 | 59.22217 | 5.24208 | 17186 ft | 193 kts | 312° |
| 2026-05-06 17:58 | 59.23258 | 5.22516 | 16698 ft | 193 kts | 312° |
| 2026-05-06 17:58 | 59.24262 | 5.20893 | 16488 ft | 187 kts | 312° |
| 2026-05-06 17:58 | 59.25320 | 5.19187 | 16381 ft | 207 kts | 313° |
| 2026-05-06 17:58 | 59.26454 | 5.17357 | 16262 ft | 222 kts | 314° |
| 2026-05-06 17:59 | 59.27694 | 5.15355 | 16138 ft | 237 kts | 314° |
| 2026-05-06 17:59 | 59.28996 | 5.13259 | 16071 ft | 248 kts | 314° |
| 2026-05-06 17:59 | 59.30343 | 5.11093 | 16050 ft | 256 kts | 315° |
| 2026-05-06 17:59 | 59.31725 | 5.08870 | 16045 ft | 262 kts | 315° |
| 2026-05-06 18:00 | 59.33142 | 5.06590 | 16042 ft | 267 kts | 315° |
| 2026-05-06 18:00 | 59.34583 | 5.04267 | 16031 ft | 271 kts | 315° |
| 2026-05-06 18:00 | 59.36062 | 5.01881 | 16038 ft | 275 kts | 315° |
| 2026-05-06 18:00 | 59.37529 | 4.99512 | 16045 ft | 278 kts | 315° |
| 2026-05-06 18:01 | 59.39124 | 4.97326 | 16011 ft | 288 kts | 329° |
| 2026-05-06 18:01 | 59.41136 | 4.96507 | 16074 ft | 299 kts | 347° |
| 2026-05-06 18:01 | 59.43214 | 4.96175 | 16050 ft | 303 kts | 348° |
| 2026-05-06 18:01 | 59.45318 | 4.95861 | 16043 ft | 305 kts | 348° |
| 2026-05-06 18:02 | 59.47435 | 4.95544 | 16039 ft | 306 kts | 348° |
| 2026-05-06 18:02 | 59.49545 | 4.95221 | 16037 ft | 308 kts | 348° |
| 2026-05-06 18:02 | 59.51668 | 4.94890 | 16037 ft | 308 kts | 348° |
| 2026-05-06 18:02 | 59.53811 | 4.94552 | 16039 ft | 309 kts | 348° |
| 2026-05-06 18:03 | 59.55947 | 4.94211 | 16047 ft | 309 kts | 348° |
| 2026-05-06 18:03 | 59.58073 | 4.93872 | 16027 ft | 301 kts | 348° |
| 2026-05-06 18:03 | 59.60110 | 4.93547 | 16033 ft | 289 kts | 347° |
| 2026-05-06 18:03 | 59.62082 | 4.93229 | 16039 ft | 278 kts | 347° |
| 2026-05-06 18:04 | 59.63969 | 4.92922 | 16028 ft | 269 kts | 347° |
| 2026-05-06 18:04 | 59.65797 | 4.92624 | 16028 ft | 261 kts | 347° |
| 2026-05-06 18:04 | 59.67595 | 4.92328 | 16035 ft | 253 kts | 346° |
| 2026-05-06 18:04 | 59.69319 | 4.92044 | 16066 ft | 247 kts | 346° |
| 2026-05-06 18:05 | 59.71006 | 4.91765 | 16059 ft | 242 kts | 346° |
| 2026-05-06 18:05 | 59.72657 | 4.91492 | 16052 ft | 236 kts | 346° |
| 2026-05-06 18:05 | 59.74276 | 4.91224 | 16038 ft | 230 kts | 345° |
| 2026-05-06 18:05 | 59.75868 | 4.90959 | 16048 ft | 233 kts | 346° |
| 2026-05-06 18:06 | 59.77497 | 4.90683 | 16051 ft | 238 kts | 346° |
| 2026-05-06 18:06 | 59.79158 | 4.90355 | 16057 ft | 243 kts | 343° |
| 2026-05-06 18:06 | 59.80846 | 4.89870 | 16008 ft | 250 kts | 342° |
| 2026-05-06 18:06 | 59.82585 | 4.89350 | 15947 ft | 254 kts | 343° |
| 2026-05-06 18:07 | 59.84317 | 4.88841 | 15875 ft | 250 kts | 343° |
| 2026-05-06 18:07 | 59.86020 | 4.88346 | 15793 ft | 247 kts | 343° |
| 2026-05-06 18:07 | 59.87720 | 4.87855 | 15708 ft | 244 kts | 343° |
| 2026-05-06 18:07 | 59.89369 | 4.87380 | 15622 ft | 241 kts | 343° |
| 2026-05-06 18:08 | 59.91036 | 4.86900 | 15547 ft | 238 kts | 343° |
| 2026-05-06 18:08 | 59.92652 | 4.86436 | 15481 ft | 236 kts | 343° |
| 2026-05-06 18:08 | 59.94257 | 4.85975 | 15407 ft | 233 kts | 342° |
| 2026-05-06 18:08 | 59.95848 | 4.85518 | 15331 ft | 230 kts | 342° |
| 2026-05-06 18:09 | 59.97439 | 4.85061 | 15245 ft | 228 kts | 343° |
| 2026-05-06 18:09 | 59.98998 | 4.84614 | 15160 ft | 225 kts | 342° |
| 2026-05-06 18:09 | 60.00535 | 4.84172 | 15074 ft | 223 kts | 342° |
| 2026-05-06 18:09 | 60.02056 | 4.83734 | 14946 ft | 223 kts | 342° |
| 2026-05-06 18:10 | 60.03606 | 4.83279 | 14649 ft | 231 kts | 343° |
| 2026-05-06 18:10 | 60.05224 | 4.82801 | 14303 ft | 241 kts | 344° |
| 2026-05-06 18:10 | 60.06910 | 4.82306 | 13908 ft | 251 kts | 345° |
| 2026-05-06 18:10 | 60.08659 | 4.81797 | 13488 ft | 253 kts | 345° |
| 2026-05-06 18:11 | 60.10425 | 4.81285 | 13073 ft | 261 kts | 346° |
| 2026-05-06 18:11 | 60.12219 | 4.80769 | 12643 ft | 263 kts | 347° |
| 2026-05-06 18:11 | 60.14021 | 4.80251 | 12211 ft | 264 kts | 347° |
| 2026-05-06 18:11 | 60.15825 | 4.79732 | 11781 ft | 265 kts | 348° |
| 2026-05-06 18:12 | 60.17663 | 4.79201 | 11343 ft | 265 kts | 348° |
| 2026-05-06 18:12 | 60.19451 | 4.78683 | 10916 ft | 263 kts | 349° |
| 2026-05-06 18:12 | 60.21265 | 4.78157 | 10484 ft | 261 kts | 349° |
| 2026-05-06 18:12 | 60.23048 | 4.77640 | 10056 ft | 259 kts | 349° |
| 2026-05-06 18:13 | 60.24824 | 4.77123 | 9633 ft | 257 kts | 349° |
| 2026-05-06 18:13 | 60.26574 | 4.76613 | 9213 ft | 252 kts | 349° |
| 2026-05-06 18:13 | 60.28282 | 4.76187 | 8786 ft | 246 kts | 356° |
| 2026-05-06 18:13 | 60.29901 | 4.77019 | 8303 ft | 245 kts | 26° |
| 2026-05-06 18:14 | 60.31329 | 4.78774 | 7970 ft | 236 kts | 30° |
| 2026-05-06 18:14 | 60.32690 | 4.80529 | 7657 ft | 226 kts | 30° |
| 2026-05-06 18:14 | 60.33966 | 4.82197 | 7350 ft | 215 kts | 30° |
| 2026-05-06 18:14 | 60.35190 | 4.83807 | 7039 ft | 205 kts | 30° |
| 2026-05-06 18:15 | 60.36340 | 4.85341 | 6734 ft | 199 kts | 32° |
| 2026-05-06 18:15 | 60.37474 | 4.87019 | 6461 ft | 201 kts | 33° |
| 2026-05-06 18:15 | 60.38598 | 4.88652 | 6161 ft | 196 kts | 33° |
| 2026-05-06 18:15 | 60.39697 | 4.90257 | 5857 ft | 196 kts | 33° |
| 2026-05-06 18:16 | 60.40798 | 4.91860 | 5531 ft | 196 kts | 33° |
| 2026-05-06 18:16 | 60.41906 | 4.93464 | 5215 ft | 196 kts | 33° |
| 2026-05-06 18:16 | 60.43008 | 4.95064 | 5076 ft | 194 kts | 33° |
| 2026-05-06 18:16 | 60.44094 | 4.96638 | 5016 ft | 193 kts | 33° |
| 2026-05-06 18:17 | 60.45179 | 4.98203 | 4989 ft | 191 kts | 32° |
| 2026-05-06 18:17 | 60.46299 | 4.99606 | 4977 ft | 187 kts | 28° |
| 2026-05-06 18:17 | 60.47436 | 5.00973 | 4825 ft | 190 kts | 28° |
| 2026-05-06 18:17 | 60.48563 | 5.02315 | 4600 ft | 190 kts | 28° |
| 2026-05-06 18:18 | 60.49687 | 5.03660 | 4370 ft | 190 kts | 28° |
| 2026-05-06 18:18 | 60.50827 | 5.05024 | 4152 ft | 190 kts | 29° |
| 2026-05-06 18:18 | 60.51745 | 5.06867 | 3978 ft | 188 kts | 63° |
| 2026-05-06 18:18 | 60.51970 | 5.09449 | 3771 ft | 185 kts | 94° |
| 2026-05-06 18:19 | 60.51517 | 5.11833 | 3556 ft | 185 kts | 134° |
| 2026-05-06 18:19 | 60.50533 | 5.13512 | 3381 ft | 189 kts | 143° |
| 2026-05-06 18:19 | 60.49484 | 5.15155 | 3231 ft | 194 kts | 146° |
| 2026-05-06 18:19 | 60.48226 | 5.16029 | 3092 ft | 192 kts | 180° |
| 2026-05-06 18:20 | 60.46898 | 5.16016 | 3024 ft | 191 kts | 177° |
| 2026-05-06 18:20 | 60.45592 | 5.16383 | 2953 ft | 192 kts | 171° |
| 2026-05-06 18:20 | 60.44302 | 5.16813 | 2858 ft | 184 kts | 172° |
| 2026-05-06 18:20 | 60.43059 | 5.17205 | 2743 ft | 179 kts | 172° |
| 2026-05-06 18:21 | 60.41858 | 5.17608 | 2477 ft | 173 kts | 172° |
| 2026-05-06 18:21 | 60.40679 | 5.18003 | 2238 ft | 167 kts | 172° |
| 2026-05-06 18:21 | 60.39538 | 5.18377 | 2009 ft | 165 kts | 172° |
| 2026-05-06 18:21 | 60.38405 | 5.18750 | 1798 ft | 165 kts | 172° |
| 2026-05-06 18:22 | 60.37273 | 5.19129 | 1579 ft | 166 kts | 172° |
| 2026-05-06 18:22 | 60.36140 | 5.19513 | 1344 ft | 161 kts | 171° |
| 2026-05-06 18:22 | 60.35088 | 5.19881 | 1108 ft | 151 kts | 172° |
| 2026-05-06 18:22 | 60.34039 | 5.20214 | 929 ft | 153 kts | 172° |
| 2026-05-06 18:23 | 60.32977 | 5.20582 | 715 ft | 156 kts | 171° |
| 2026-05-06 18:23 | 60.31902 | 5.20953 | 500 ft | 157 kts | 171° |
| 2026-05-06 18:23 | 60.30831 | 5.21308 | 273 ft | 155 kts | 169° |
| 2026-05-06 18:23 | 60.29793 | 5.21663 | 159 ft | 141 kts | 170° |
| 2026-05-06 18:24 | 60.29082 | 5.21903 | 164 ft | 75 kts | 170° |
| 2026-05-06 18:24 | 60.28724 | 5.22020 | 164 ft | 24 kts | 172° |
| 2026-05-06 18:24 | 60.28663 | 5.22098 | 164 ft | 5 kts | 107° |
| 2026-05-06 18:24 | 60.28667 | 5.22233 | 166 ft | 9 kts | 80° |
| 2026-05-06 18:25 | 60.28667 | 5.22241 | 166 ft | 0 kts | 79° |
| 2026-05-06 18:25 | 60.28667 | 5.22242 | 166 ft | 0 kts | 79° |
| 2026-05-06 18:25 | 60.28674 | 5.22320 | 167 ft | 9 kts | 80° |
| 2026-05-06 18:26 | 60.28695 | 5.22474 | 169 ft | 12 kts | 64° |
| 2026-05-06 18:26 | 60.28716 | 5.22644 | 171 ft | 11 kts | 81° |
| 2026-05-06 18:26 | 60.28728 | 5.22781 | 172 ft | 8 kts | 81° |
| 2026-05-06 18:26 | 60.28736 | 5.22888 | 173 ft | 5 kts | 80° |
| 2026-05-06 18:27 | 60.28738 | 5.22904 | 172 ft | 0 kts | 79° |